sensor_id;sensor_type;location;lat;lon;timestamp;pressure;altitude;pressure_sealevel;temperature;humidity
10460;BME280;54412;51.206;6.888;2023-04-15T00:01:23;100016.44;;;10.64;57.14
10460;BME280;54412;51.206;6.888;2023-04-15T00:03:51;100016.31;;;10.66;56.29
10460;BME280;54412;51.206;6.888;2023-04-15T00:06:18;100020.84;;;10.64;56.94
10460;BME280;54412;51.206;6.888;2023-04-15T00:08:44;100021.13;;;10.59;57.13
10460;BME280;54412;51.206;6.888;2023-04-15T00:11:11;100016.03;;;10.56;57.32
10460;BME280;54412;51.206;6.888;2023-04-15T00:13:38;100018.78;;;10.69;56.83
10460;BME280;54412;51.206;6.888;2023-04-15T00:16:05;100018.00;;;10.52;56.77
10460;BME280;54412;51.206;6.888;2023-04-15T00:18:33;100015.34;;;10.52;56.92
10460;BME280;54412;51.206;6.888;2023-04-15T00:20:59;100017.94;;;10.54;56.78
10460;BME280;54412;51.206;6.888;2023-04-15T00:23:27;100024.78;;;10.57;56.79
10460;BME280;54412;51.206;6.888;2023-04-15T00:25:52;100013.56;;;10.53;56.71
10460;BME280;54412;51.206;6.888;2023-04-15T00:28:18;100008.03;;;10.58;56.53
10460;BME280;54412;51.206;6.888;2023-04-15T00:30:44;100011.34;;;10.61;56.44
10460;BME280;54412;51.206;6.888;2023-04-15T00:33:12;100004.16;;;10.49;56.34
10460;BME280;54412;51.206;6.888;2023-04-15T00:35:37;100008.09;;;10.56;56.08
10460;BME280;54412;51.206;6.888;2023-04-15T00:38:05;100013.91;;;10.77;55.46
10460;BME280;54412;51.206;6.888;2023-04-15T00:40:31;100016.13;;;10.69;55.53
10460;BME280;54412;51.206;6.888;2023-04-15T00:42:57;100015.88;;;10.59;55.61
10460;BME280;54412;51.206;6.888;2023-04-15T00:45:24;100020.94;;;10.62;55.63
10460;BME280;54412;51.206;6.888;2023-04-15T00:47:50;100014.84;;;10.76;55.11
10460;BME280;54412;51.206;6.888;2023-04-15T00:50:16;100014.84;;;10.76;54.69
10460;BME280;54412;51.206;6.888;2023-04-15T00:52:41;100019.53;;;10.71;54.64
10460;BME280;54412;51.206;6.888;2023-04-15T00:55:09;100019.84;;;10.80;54.93
10460;BME280;54412;51.206;6.888;2023-04-15T00:57:37;100011.34;;;10.61;55.22
10460;BME280;54412;51.206;6.888;2023-04-15T01:00:04;100015.88;;;10.59;55.06
10460;BME280;54412;51.206;6.888;2023-04-15T01:02:33;100005.84;;;10.50;55.34
10460;BME280;54412;51.206;6.888;2023-04-15T01:04:59;100016.31;;;10.51;55.19
10460;BME280;54412;51.206;6.888;2023-04-15T01:07:25;100016.31;;;10.66;55.25
10460;BME280;54412;51.206;6.888;2023-04-15T01:09:51;100012.16;;;10.62;55.17
10460;BME280;54412;51.206;6.888;2023-04-15T01:12:18;100008.41;;;10.51;55.54
10460;BME280;54412;51.206;6.888;2023-04-15T01:14:45;100008.72;;;10.31;56.30
10460;BME280;54412;51.206;6.888;2023-04-15T01:17:11;100008.63;;;10.33;55.93
10460;BME280;54412;51.206;6.888;2023-04-15T01:19:37;100000.81;;;10.61;55.58
10460;BME280;54412;51.206;6.888;2023-04-15T01:22:04;100008.66;;;10.47;55.87
10460;BME280;54412;51.206;6.888;2023-04-15T01:24:31;100008.38;;;10.37;56.49
10460;BME280;54412;51.206;6.888;2023-04-15T01:26:58;100005.31;;;10.29;56.67
10460;BME280;54412;51.206;6.888;2023-04-15T01:29:24;100013.94;;;10.17;57.07
10460;BME280;54412;51.206;6.888;2023-04-15T01:31:51;100004.94;;;10.21;57.09
10460;BME280;54412;51.206;6.888;2023-04-15T01:34:18;100006.84;;;10.33;56.79
10460;BME280;54412;51.206;6.888;2023-04-15T01:36:44;100005.59;;;10.25;56.92
10460;BME280;54412;51.206;6.888;2023-04-15T01:39:10;100006.38;;;10.27;57.21
10460;BME280;54412;51.206;6.888;2023-04-15T01:41:36;100011.91;;;10.07;57.69
10460;BME280;54412;51.206;6.888;2023-04-15T01:44:01;100008.19;;;10.11;57.57
10460;BME280;54412;51.206;6.888;2023-04-15T01:46:27;100011.47;;;9.99;57.53
10460;BME280;54412;51.206;6.888;2023-04-15T01:48:53;100014.13;;;9.99;58.20
10460;BME280;54412;51.206;6.888;2023-04-15T01:51:19;100010.56;;;10.00;58.00
10460;BME280;54412;51.206;6.888;2023-04-15T01:53:44;100013.88;;;9.88;58.34
10460;BME280;54412;51.206;6.888;2023-04-15T01:56:11;100009.38;;;9.90;57.88
10460;BME280;54412;51.206;6.888;2023-04-15T01:58:37;100008.53;;;9.89;57.95
10460;BME280;54412;51.206;6.888;2023-04-15T02:01:02;100010.88;;;9.64;58.43
10460;BME280;54412;51.206;6.888;2023-04-15T02:03:29;100008.47;;;9.60;58.72
10460;BME280;54412;51.206;6.888;2023-04-15T02:05:54;100013.06;;;9.56;59.21
10460;BME280;54412;51.206;6.888;2023-04-15T02:08:20;100015.09;;;9.67;59.39
10460;BME280;54412;51.206;6.888;2023-04-15T02:10:46;100009.59;;;9.71;59.11
10460;BME280;54412;51.206;6.888;2023-04-15T02:13:11;100012.56;;;9.49;59.36
10460;BME280;54412;51.206;6.888;2023-04-15T02:15:38;100016.97;;;9.65;58.50
10460;BME280;54412;51.206;6.888;2023-04-15T02:18:03;100013.91;;;9.57;58.99
10460;BME280;54412;51.206;6.888;2023-04-15T02:20:29;100020.38;;;9.51;58.99
10460;BME280;54412;51.206;6.888;2023-04-15T02:22:55;100020.09;;;9.56;59.59
10460;BME280;54412;51.206;6.888;2023-04-15T02:25:21;100026.22;;;9.40;60.10
10460;BME280;54412;51.206;6.888;2023-04-15T02:27:47;100018.06;;;9.45;59.68
10460;BME280;54412;51.206;6.888;2023-04-15T02:30:13;100025.47;;;9.54;59.39
10460;BME280;54412;51.206;6.888;2023-04-15T02:32:39;100017.75;;;9.51;59.16
10460;BME280;54412;51.206;6.888;2023-04-15T02:35:07;100021.88;;;9.39;59.46
10460;BME280;54412;51.206;6.888;2023-04-15T02:37:36;100024.34;;;9.27;59.98
10460;BME280;54412;51.206;6.888;2023-04-15T02:40:08;100025.78;;;9.32;60.15
10460;BME280;54412;51.206;6.888;2023-04-15T02:42:37;100033.09;;;9.27;60.30
10460;BME280;54412;51.206;6.888;2023-04-15T02:45:04;100033.34;;;9.38;59.71
10460;BME280;54412;51.206;6.888;2023-04-15T02:47:30;100031.75;;;9.52;59.64
10460;BME280;54412;51.206;6.888;2023-04-15T02:49:56;100034.19;;;9.39;59.70
10460;BME280;54412;51.206;6.888;2023-04-15T02:52:23;100040.47;;;9.52;58.77
10460;BME280;54412;51.206;6.888;2023-04-15T02:54:49;100044.13;;;9.34;59.58
10460;BME280;54412;51.206;6.888;2023-04-15T02:57:15;100041.97;;;9.09;59.84
10460;BME280;54412;51.206;6.888;2023-04-15T02:59:40;100039.25;;;9.26;59.46
10460;BME280;54412;51.206;6.888;2023-04-15T03:02:06;100041.66;;;8.98;60.57
10460;BME280;54412;51.206;6.888;2023-04-15T03:04:33;100053.25;;;9.11;60.15
10460;BME280;54412;51.206;6.888;2023-04-15T03:07:00;100054.13;;;8.95;60.50
10460;BME280;54412;51.206;6.888;2023-04-15T03:09:26;100049.56;;;8.98;60.42
10460;BME280;54412;51.206;6.888;2023-04-15T03:11:51;100049.72;;;8.95;60.83
10460;BME280;54412;51.206;6.888;2023-04-15T03:14:19;100049.16;;;9.06;60.91
10460;BME280;54412;51.206;6.888;2023-04-15T03:16:45;100052.66;;;8.89;60.55
10460;BME280;54412;51.206;6.888;2023-04-15T03:19:10;100053.91;;;8.82;61.07
10460;BME280;54412;51.206;6.888;2023-04-15T03:21:36;100052.50;;;8.92;61.49
10460;BME280;54412;51.206;6.888;2023-04-15T03:24:02;100049.97;;;8.91;61.29
10460;BME280;54412;51.206;6.888;2023-04-15T03:26:29;100049.28;;;9.20;60.68
10460;BME280;54412;51.206;6.888;2023-04-15T03:28:56;100042.97;;;9.07;60.33
10460;BME280;54412;51.206;6.888;2023-04-15T03:31:22;100047.97;;;8.96;60.61
10460;BME280;54412;51.206;6.888;2023-04-15T03:33:47;100053.75;;;9.02;60.98
10460;BME280;54412;51.206;6.888;2023-04-15T03:36:13;100048.97;;;8.93;60.92
10460;BME280;54412;51.206;6.888;2023-04-15T03:38:40;100054.63;;;8.86;60.52
10460;BME280;54412;51.206;6.888;2023-04-15T03:41:06;100062.03;;;8.95;60.45
10460;BME280;54412;51.206;6.888;2023-04-15T03:43:32;100065.13;;;9.03;59.91
10460;BME280;54412;51.206;6.888;2023-04-15T03:45:57;100066.38;;;8.79;61.08
10460;BME280;54412;51.206;6.888;2023-04-15T03:48:23;100069.47;;;8.87;61.14
10460;BME280;54412;51.206;6.888;2023-04-15T03:50:49;100072.03;;;8.88;60.95
10460;BME280;54412;51.206;6.888;2023-04-15T03:53:14;100073.22;;;8.98;60.91
10460;BME280;54412;51.206;6.888;2023-04-15T03:55:40;100069.84;;;8.96;60.97
10460;BME280;54412;51.206;6.888;2023-04-15T03:58:06;100070.66;;;8.81;61.37
10460;BME280;54412;51.206;6.888;2023-04-15T04:00:32;100079.22;;;8.85;61.48
10460;BME280;54412;51.206;6.888;2023-04-15T04:02:57;100071.00;;;8.91;61.11
10460;BME280;54412;51.206;6.888;2023-04-15T04:05:23;100081.91;;;8.83;61.12
10460;BME280;54412;51.206;6.888;2023-04-15T04:07:49;100082.75;;;8.84;60.80
10460;BME280;54412;51.206;6.888;2023-04-15T04:10:15;100079.69;;;8.76;61.32
10460;BME280;54412;51.206;6.888;2023-04-15T04:12:40;100088.25;;;8.62;61.82
10460;BME280;54412;51.206;6.888;2023-04-15T04:15:07;100084.84;;;8.60;62.02
10460;BME280;54412;51.206;6.888;2023-04-15T04:17:33;100090.06;;;8.62;62.03
10460;BME280;54412;51.206;6.888;2023-04-15T04:19:58;100084.53;;;8.83;61.74
10460;BME280;54412;51.206;6.888;2023-04-15T04:22:24;100081.75;;;8.69;61.58
10460;BME280;54412;51.206;6.888;2023-04-15T04:24:50;100091.91;;;8.77;61.91
10460;BME280;54412;51.206;6.888;2023-04-15T04:27:16;100087.66;;;8.74;61.85
10460;BME280;54412;51.206;6.888;2023-04-15T04:29:42;100087.78;;;8.71;62.25
10460;BME280;54412;51.206;6.888;2023-04-15T04:32:07;100095.78;;;8.87;61.86
10460;BME280;54412;51.206;6.888;2023-04-15T04:34:33;100092.28;;;8.86;61.92
10460;BME280;54412;51.206;6.888;2023-04-15T04:36:59;100095.91;;;8.84;62.03
10460;BME280;54412;51.206;6.888;2023-04-15T04:39:24;100106.56;;;8.98;61.43
10460;BME280;54412;51.206;6.888;2023-04-15T04:41:50;100105.06;;;8.94;61.65
10460;BME280;54412;51.206;6.888;2023-04-15T04:44:19;100104.13;;;8.78;62.22
10460;BME280;54412;51.206;6.888;2023-04-15T04:46:44;100105.66;;;8.82;62.29
10460;BME280;54412;51.206;6.888;2023-04-15T04:49:10;100104.97;;;8.78;62.16
10460;BME280;54412;51.206;6.888;2023-04-15T04:51:36;100111.38;;;8.90;61.38
10460;BME280;54412;51.206;6.888;2023-04-15T04:54:01;100114.94;;;8.89;61.89
10460;BME280;54412;51.206;6.888;2023-04-15T04:56:28;100111.53;;;9.04;61.39
10460;BME280;54412;51.206;6.888;2023-04-15T04:58:54;100115.00;;;8.87;61.60
10460;BME280;54412;51.206;6.888;2023-04-15T05:01:20;100119.94;;;9.10;61.08
10460;BME280;54412;51.206;6.888;2023-04-15T05:03:45;100119.72;;;8.98;61.54
10460;BME280;54412;51.206;6.888;2023-04-15T05:06:11;100125.13;;;9.12;60.72
10460;BME280;54412;51.206;6.888;2023-04-15T05:08:37;100126.19;;;9.25;60.75
10460;BME280;54412;51.206;6.888;2023-04-15T05:11:03;100128.81;;;9.25;60.96
10460;BME280;54412;51.206;6.888;2023-04-15T05:13:29;100132.59;;;9.19;61.00
10460;BME280;54412;51.206;6.888;2023-04-15T05:15:55;100129.25;;;9.17;61.53
10460;BME280;54412;51.206;6.888;2023-04-15T05:18:21;100128.03;;;9.23;61.18
10460;BME280;54412;51.206;6.888;2023-04-15T05:20:47;100133.44;;;9.37;60.69
10460;BME280;54412;51.206;6.888;2023-04-15T05:23:15;100132.34;;;9.41;60.98
10460;BME280;54412;51.206;6.888;2023-04-15T05:25:41;100140.78;;;9.47;60.73
10460;BME280;54412;51.206;6.888;2023-04-15T05:28:06;100140.19;;;9.42;61.05
10460;BME280;54412;51.206;6.888;2023-04-15T05:30:32;100144.41;;;9.45;61.01
10460;BME280;54412;51.206;6.888;2023-04-15T05:32:58;100145.50;;;9.41;60.91
10460;BME280;54412;51.206;6.888;2023-04-15T05:35:24;100144.09;;;9.51;60.53
10460;BME280;54412;51.206;6.888;2023-04-15T05:37:50;100144.72;;;9.39;61.00
10460;BME280;54412;51.206;6.888;2023-04-15T05:40:15;100160.81;;;9.50;60.58
10460;BME280;54412;51.206;6.888;2023-04-15T05:42:41;100153.66;;;9.36;61.05
10460;BME280;54412;51.206;6.888;2023-04-15T05:45:07;100159.13;;;9.65;60.51
10460;BME280;54412;51.206;6.888;2023-04-15T05:47:35;100159.41;;;9.60;60.21
10460;BME280;54412;51.206;6.888;2023-04-15T05:50:02;100154.53;;;9.52;60.77
10460;BME280;54412;51.206;6.888;2023-04-15T05:52:28;100161.31;;;9.89;60.37
10460;BME280;54412;51.206;6.888;2023-04-15T05:54:54;100158.34;;;9.95;59.91
10460;BME280;54412;51.206;6.888;2023-04-15T05:57:19;100157.81;;;9.89;60.70
10460;BME280;54412;51.206;6.888;2023-04-15T05:59:45;100162.91;;;9.92;60.55
10460;BME280;54412;51.206;6.888;2023-04-15T06:02:11;100171.22;;;10.17;60.27
10460;BME280;54412;51.206;6.888;2023-04-15T06:04:38;100169.78;;;10.27;60.13
10460;BME280;54412;51.206;6.888;2023-04-15T06:07:04;100176.91;;;10.25;60.47
10460;BME280;54412;51.206;6.888;2023-04-15T06:09:29;100181.13;;;10.59;59.50
10460;BME280;54412;51.206;6.888;2023-04-15T06:11:55;100190.28;;;10.67;59.53
10460;BME280;54412;51.206;6.888;2023-04-15T06:14:22;100188.63;;;10.50;59.82
10460;BME280;54412;51.206;6.888;2023-04-15T06:16:48;100185.63;;;10.57;60.40
10460;BME280;54412;51.206;6.888;2023-04-15T06:19:13;100203.28;;;10.86;59.79
10460;BME280;54412;51.206;6.888;2023-04-15T06:21:39;100201.41;;;11.17;58.93
10460;BME280;54412;51.206;6.888;2023-04-15T06:24:06;100207.19;;;10.94;59.85
10460;BME280;54412;51.206;6.888;2023-04-15T06:26:32;100207.94;;;10.96;59.84
10460;BME280;54412;51.206;6.888;2023-04-15T06:28:57;100211.34;;;10.98;59.98
10460;BME280;54412;51.206;6.888;2023-04-15T06:31:23;100208.50;;;11.01;60.22
10460;BME280;54412;51.206;6.888;2023-04-15T06:33:49;100216.22;;;11.20;59.42
10460;BME280;54412;51.206;6.888;2023-04-15T06:36:15;100210.63;;;11.54;58.65
10460;BME280;54412;51.206;6.888;2023-04-15T06:38:40;100213.06;;;11.57;58.64
10460;BME280;54412;51.206;6.888;2023-04-15T06:41:06;100214.25;;;11.81;58.16
10460;BME280;54412;51.206;6.888;2023-04-15T06:43:32;100220.66;;;11.91;57.62
10460;BME280;54412;51.206;6.888;2023-04-15T06:45:58;100223.59;;;11.87;58.30
10460;BME280;54412;51.206;6.888;2023-04-15T06:48:23;100220.75;;;12.04;57.56
10460;BME280;54412;51.206;6.888;2023-04-15T06:50:49;100222.00;;;12.12;57.74
10460;BME280;54412;51.206;6.888;2023-04-15T06:53:15;100227.38;;;12.25;57.12
10460;BME280;54412;51.206;6.888;2023-04-15T06:55:41;100228.31;;;12.10;57.84
10460;BME280;54412;51.206;6.888;2023-04-15T06:58:07;100225.88;;;12.47;57.10
10460;BME280;54412;51.206;6.888;2023-04-15T07:00:33;100227.94;;;12.56;56.74
10460;BME280;54412;51.206;6.888;2023-04-15T07:03:01;100237.22;;;12.49;57.48
10460;BME280;54412;51.206;6.888;2023-04-15T07:05:29;100233.69;;;12.63;56.38
10460;BME280;54412;51.206;6.888;2023-04-15T07:07:55;100238.59;;;12.69;57.21
10460;BME280;54412;51.206;6.888;2023-04-15T07:10:21;100250.56;;;12.75;57.03
10460;BME280;54412;51.206;6.888;2023-04-15T07:12:48;100245.56;;;12.70;56.38
10460;BME280;54412;51.206;6.888;2023-04-15T07:15:13;100251.88;;;12.82;56.07
10460;BME280;54412;51.206;6.888;2023-04-15T07:17:40;100249.22;;;12.82;55.33
10460;BME280;54412;51.206;6.888;2023-04-15T07:20:08;100248.59;;;13.05;54.87
10460;BME280;54412;51.206;6.888;2023-04-15T07:22:34;100262.69;;;13.05;54.23
10460;BME280;54412;51.206;6.888;2023-04-15T07:25:00;100263.16;;;12.98;54.62
10460;BME280;54412;51.206;6.888;2023-04-15T07:27:26;100267.63;;;13.24;54.21
10460;BME280;54412;51.206;6.888;2023-04-15T07:29:52;100275.44;;;12.99;54.50
10460;BME280;54412;51.206;6.888;2023-04-15T07:32:18;100277.13;;;13.00;54.65
10460;BME280;54412;51.206;6.888;2023-04-15T07:34:44;100277.91;;;13.02;54.87
10460;BME280;54412;51.206;6.888;2023-04-15T07:37:10;100279.50;;;13.04;55.03
10460;BME280;54412;51.206;6.888;2023-04-15T07:39:35;100288.59;;;13.00;54.14
10460;BME280;54412;51.206;6.888;2023-04-15T07:42:02;100285.06;;;13.14;54.67
10460;BME280;54412;51.206;6.888;2023-04-15T07:44:28;100291.41;;;13.11;54.59
10460;BME280;54412;51.206;6.888;2023-04-15T07:46:57;100291.41;;;12.97;54.80
10460;BME280;54412;51.206;6.888;2023-04-15T07:49:23;100299.41;;;13.24;54.30
10460;BME280;54412;51.206;6.888;2023-04-15T07:51:49;100301.94;;;13.25;53.70
10460;BME280;54412;51.206;6.888;2023-04-15T07:54:15;100293.25;;;13.23;54.46
10460;BME280;54412;51.206;6.888;2023-04-15T07:56:41;100301.84;;;13.27;54.23
10460;BME280;54412;51.206;6.888;2023-04-15T07:59:07;100306.03;;;13.17;52.85
10460;BME280;54412;51.206;6.888;2023-04-15T08:01:34;100303.19;;;13.20;52.57
10460;BME280;54412;51.206;6.888;2023-04-15T08:04:00;100309.50;;;13.44;52.29
10460;BME280;54412;51.206;6.888;2023-04-15T08:06:25;100313.72;;;13.34;52.53
10460;BME280;54412;51.206;6.888;2023-04-15T08:08:52;100314.03;;;13.42;52.08
10460;BME280;54412;51.206;6.888;2023-04-15T08:11:19;100325.50;;;13.42;51.87
10460;BME280;54412;51.206;6.888;2023-04-15T08:13:46;100327.28;;;13.42;52.47
10460;BME280;54412;51.206;6.888;2023-04-15T08:18:48;100332.75;;;13.65;51.68
10460;BME280;54412;51.206;6.888;2023-04-15T08:21:16;100342.72;;;13.62;51.31
10460;BME280;54412;51.206;6.888;2023-04-15T08:23:43;100336.66;;;13.60;51.37
10460;BME280;54412;51.206;6.888;2023-04-15T08:26:10;100345.63;;;13.84;51.12
10460;BME280;54412;51.206;6.888;2023-04-15T08:28:39;100343.41;;;13.91;50.98
10460;BME280;54412;51.206;6.888;2023-04-15T08:31:06;100345.09;;;13.79;50.78
10460;BME280;54412;51.206;6.888;2023-04-15T08:33:32;100350.06;;;13.84;51.11
10460;BME280;54412;51.206;6.888;2023-04-15T08:35:58;100351.47;;;13.89;51.33
10460;BME280;54412;51.206;6.888;2023-04-15T08:38:23;100352.84;;;13.82;51.67
10460;BME280;54412;51.206;6.888;2023-04-15T08:40:49;100348.69;;;13.78;51.00
10460;BME280;54412;51.206;6.888;2023-04-15T08:43:22;100360.38;;;13.76;51.02
10460;BME280;54412;51.206;6.888;2023-04-15T08:45:52;100359.50;;;13.75;51.62
10460;BME280;54412;51.206;6.888;2023-04-15T08:48:18;100355.66;;;13.54;52.91
10460;BME280;54412;51.206;6.888;2023-04-15T08:50:45;100364.19;;;13.84;51.54
10460;BME280;54412;51.206;6.888;2023-04-15T08:53:12;100362.13;;;13.62;51.88
10460;BME280;54412;51.206;6.888;2023-04-15T08:55:44;100369.06;;;13.51;52.64
10460;BME280;54412;51.206;6.888;2023-04-15T08:58:14;100374.81;;;13.45;52.78
10460;BME280;54412;51.206;6.888;2023-04-15T09:00:41;100372.63;;;13.64;52.43
10460;BME280;54412;51.206;6.888;2023-04-15T09:03:08;100372.50;;;13.65;53.06
10460;BME280;54412;51.206;6.888;2023-04-15T09:05:37;100366.88;;;14.09;52.67
10460;BME280;54412;51.206;6.888;2023-04-15T09:08:04;100361.19;;;14.40;52.69
10460;BME280;54412;51.206;6.888;2023-04-15T09:10:32;100374.44;;;14.65;51.82
10460;BME280;54412;51.206;6.888;2023-04-15T09:12:58;100373.31;;;14.81;50.08
10460;BME280;54412;51.206;6.888;2023-04-15T09:15:24;100380.56;;;14.53;49.60
10460;BME280;54412;51.206;6.888;2023-04-15T09:17:52;100382.56;;;14.25;50.38
10460;BME280;54412;51.206;6.888;2023-04-15T09:20:17;100383.56;;;14.36;50.80
10460;BME280;54412;51.206;6.888;2023-04-15T09:22:46;100389.84;;;14.60;50.03
10460;BME280;54412;51.206;6.888;2023-04-15T09:27:54;100386.00;;;14.39;51.04
10460;BME280;54412;51.206;6.888;2023-04-15T09:30:21;100396.50;;;14.53;50.58
10460;BME280;54412;51.206;6.888;2023-04-15T09:32:55;100394.81;;;14.52;50.26
10460;BME280;54412;51.206;6.888;2023-04-15T09:35:23;100390.50;;;14.39;51.33
10460;BME280;54412;51.206;6.888;2023-04-15T09:37:50;100392.69;;;14.57;50.81
10460;BME280;54412;51.206;6.888;2023-04-15T09:40:37;100395.78;;;15.13;49.85
10460;BME280;54412;51.206;6.888;2023-04-15T09:43:05;100396.19;;;15.19;48.84
10460;BME280;54412;51.206;6.888;2023-04-15T09:45:32;100399.09;;;15.04;48.51
10460;BME280;54412;51.206;6.888;2023-04-15T09:48:14;100402.63;;;14.79;49.10
10460;BME280;54412;51.206;6.888;2023-04-15T09:50:42;100405.78;;;14.97;49.33
10460;BME280;54412;51.206;6.888;2023-04-15T09:53:09;100408.00;;;15.39;48.25
10460;BME280;54412;51.206;6.888;2023-04-15T09:55:37;100406.00;;;15.90;47.72
10460;BME280;54412;51.206;6.888;2023-04-15T09:58:08;100412.63;;;16.30;46.30
10460;BME280;54412;51.206;6.888;2023-04-15T10:00:42;100410.59;;;16.33;46.81
10460;BME280;54412;51.206;6.888;2023-04-15T10:03:08;100413.19;;;16.79;46.60
10460;BME280;54412;51.206;6.888;2023-04-15T10:05:36;100409.06;;;16.64;46.70
10460;BME280;54412;51.206;6.888;2023-04-15T10:08:03;100423.00;;;16.56;46.50
10460;BME280;54412;51.206;6.888;2023-04-15T10:10:29;100425.66;;;16.11;46.81
10460;BME280;54412;51.206;6.888;2023-04-15T10:12:55;100429.53;;;15.83;46.55
10460;BME280;54412;51.206;6.888;2023-04-15T10:15:23;100432.28;;;15.34;48.66
10460;BME280;54412;51.206;6.888;2023-04-15T10:17:53;100435.84;;;15.10;49.41
10460;BME280;54412;51.206;6.888;2023-04-15T10:20:22;100427.91;;;15.33;48.82
10460;BME280;54412;51.206;6.888;2023-04-15T10:22:48;100434.91;;;14.98;49.94
10460;BME280;54412;51.206;6.888;2023-04-15T10:25:16;100440.34;;;14.72;50.27
10460;BME280;54412;51.206;6.888;2023-04-15T10:27:42;100434.72;;;14.76;50.28
10460;BME280;54412;51.206;6.888;2023-04-15T10:30:09;100435.56;;;14.89;50.36
10460;BME280;54412;51.206;6.888;2023-04-15T10:32:37;100434.50;;;14.66;50.73
10460;BME280;54412;51.206;6.888;2023-04-15T10:35:04;100443.34;;;14.67;51.15
10460;BME280;54412;51.206;6.888;2023-04-15T10:37:35;100438.03;;;14.67;51.24
10460;BME280;54412;51.206;6.888;2023-04-15T10:40:29;100451.28;;;14.80;51.47
10460;BME280;54412;51.206;6.888;2023-04-15T10:43:01;100454.22;;;15.13;51.34
10460;BME280;54412;51.206;6.888;2023-04-15T10:45:34;100458.81;;;15.11;50.68
10460;BME280;54412;51.206;6.888;2023-04-15T10:48:04;100457.69;;;15.26;50.82
10460;BME280;54412;51.206;6.888;2023-04-15T10:50:32;100451.81;;;15.33;50.56
10460;BME280;54412;51.206;6.888;2023-04-15T10:52:58;100458.34;;;15.17;49.70
10460;BME280;54412;51.206;6.888;2023-04-15T10:55:32;100459.34;;;15.03;51.15
10460;BME280;54412;51.206;6.888;2023-04-15T10:58:00;100463.81;;;14.65;51.96
10460;BME280;54412;51.206;6.888;2023-04-15T11:00:31;100459.38;;;14.78;51.86
10460;BME280;54412;51.206;6.888;2023-04-15T11:03:08;100463.59;;;14.55;52.06
10460;BME280;54412;51.206;6.888;2023-04-15T11:05:51;100464.47;;;14.56;52.98
10460;BME280;54412;51.206;6.888;2023-04-15T11:08:17;100464.47;;;14.68;52.31
10460;BME280;54412;51.206;6.888;2023-04-15T11:13:15;100460.13;;;14.68;52.15
10460;BME280;54412;51.206;6.888;2023-04-15T11:15:46;100471.38;;;14.58;53.03
10460;BME280;54412;51.206;6.888;2023-04-15T11:18:24;100471.91;;;14.63;52.91
10460;BME280;54412;51.206;6.888;2023-04-15T11:20:53;100474.56;;;14.76;52.60
10460;BME280;54412;51.206;6.888;2023-04-15T11:23:42;100480.50;;;14.54;53.58
10460;BME280;54412;51.206;6.888;2023-04-15T11:26:11;100488.34;;;14.81;52.55
10460;BME280;54412;51.206;6.888;2023-04-15T11:28:40;100495.44;;;14.55;52.92
10460;BME280;54412;51.206;6.888;2023-04-15T11:31:17;100486.53;;;14.56;53.77
10460;BME280;54412;51.206;6.888;2023-04-15T11:33:59;100486.03;;;14.64;53.32
10460;BME280;54412;51.206;6.888;2023-04-15T11:36:28;100487.94;;;14.62;53.05
10460;BME280;54412;51.206;6.888;2023-04-15T11:38:56;100489.84;;;14.98;52.29
10460;BME280;54412;51.206;6.888;2023-04-15T11:41:23;100492.91;;;15.04;52.48
10460;BME280;54412;51.206;6.888;2023-04-15T11:43:50;100501.00;;;14.90;51.32
10460;BME280;54412;51.206;6.888;2023-04-15T11:46:16;100507.16;;;15.03;51.54
10460;BME280;54412;51.206;6.888;2023-04-15T11:48:45;100499.16;;;15.28;51.88
10460;BME280;54412;51.206;6.888;2023-04-15T11:51:12;100512.09;;;15.33;51.42
10460;BME280;54412;51.206;6.888;2023-04-15T11:53:44;100509.19;;;14.87;51.88
10460;BME280;54412;51.206;6.888;2023-04-15T11:56:23;100511.38;;;14.81;52.63
10460;BME280;54412;51.206;6.888;2023-04-15T11:58:58;100516.63;;;14.30;52.96
10460;BME280;54412;51.206;6.888;2023-04-15T12:01:53;100523.44;;;14.34;53.80
10460;BME280;54412;51.206;6.888;2023-04-15T12:04:19;100527.53;;;14.26;54.10
10460;BME280;54412;51.206;6.888;2023-04-15T12:06:47;100522.81;;;14.31;53.51
10460;BME280;54412;51.206;6.888;2023-04-15T12:09:15;100534.38;;;14.16;54.49
10460;BME280;54412;51.206;6.888;2023-04-15T12:11:49;100524.38;;;14.07;54.51
10460;BME280;54412;51.206;6.888;2023-04-15T12:16:58;100536.72;;;14.08;54.97
10460;BME280;54412;51.206;6.888;2023-04-15T12:19:29;100539.56;;;14.05;55.29
10460;BME280;54412;51.206;6.888;2023-04-15T12:21:59;100538.19;;;13.99;55.27
10460;BME280;54412;51.206;6.888;2023-04-15T12:24:25;100550.84;;;14.08;55.10
10460;BME280;54412;51.206;6.888;2023-04-15T12:26:56;100549.38;;;13.90;55.75
10460;BME280;54412;51.206;6.888;2023-04-15T12:29:30;100553.13;;;14.00;55.46
10460;BME280;54412;51.206;6.888;2023-04-15T12:32:14;100563.38;;;14.19;54.60
10460;BME280;54412;51.206;6.888;2023-04-15T12:34:49;100566.31;;;14.14;55.17
10460;BME280;54412;51.206;6.888;2023-04-15T12:37:15;100582.19;;;14.02;54.60
10460;BME280;54412;51.206;6.888;2023-04-15T12:39:44;100577.31;;;13.96;54.70
10460;BME280;54412;51.206;6.888;2023-04-15T12:42:10;100579.41;;;13.77;55.85
10460;BME280;54412;51.206;6.888;2023-04-15T12:44:38;100584.88;;;13.88;54.72
10460;BME280;54412;51.206;6.888;2023-04-15T12:47:04;100590.97;;;13.76;55.21
10460;BME280;54412;51.206;6.888;2023-04-15T12:49:31;100586.34;;;13.51;56.13
10460;BME280;54412;51.206;6.888;2023-04-15T12:51:59;100592.16;;;13.43;56.40
10460;BME280;54412;51.206;6.888;2023-04-15T12:54:27;100596.47;;;13.58;56.76
10460;BME280;54412;51.206;6.888;2023-04-15T12:56:53;100594.47;;;13.62;56.27
10460;BME280;54412;51.206;6.888;2023-04-15T12:59:20;100604.91;;;13.65;55.88
10460;BME280;54412;51.206;6.888;2023-04-15T13:01:47;100614.19;;;13.58;55.87
10460;BME280;54412;51.206;6.888;2023-04-15T13:04:14;100605.47;;;13.42;56.84